Time;durP1;ratioP1;P1;durP2;ratioP2;P2;SDS_P1;SDS_P2;PMS_P1;PMS_P2;Temp;Humidity;BMP_temperature;BMP_pressure;BME280_temperature;BME280_humidity;BME280_pressure;Samples;Min_cycle;Max_cycle;Signal;HPM_P1;HPM_P2
2023/03/13 00:01:36;;;;;;;1.70;0.80;;;;;;;;;;4994250;28;20921;-73
2023/03/13 00:04:03;;;;;;;5.17;1.43;;;;;;;;;;4994295;28;20785;-72
2023/03/13 00:06:34;;;;;;;3.00;1.60;;;;;;;;;;4994335;28;20421;-72
2023/03/13 00:09:00;;;;;;;1.80;1.17;;;;;;;;;;4992898;28;20992;-73
2023/03/13 00:11:27;;;;;;;1.17;0.57;;;;;;;;;;4994033;28;20520;-73
2023/03/13 00:13:54;;;;;;;0.80;0.80;;;;;;;;;;4993465;28;20897;-73
2023/03/13 00:16:20;;;;;;;1.50;0.67;;;;;;;;;;4994448;28;20487;-73
2023/03/13 00:18:47;;;;;;;1.63;0.97;;;;;;;;;;4994099;28;20468;-73
2023/03/13 00:21:13;;;;;;;1.60;0.73;;;;;;;;;;4994264;28;20420;-73
2023/03/13 00:23:39;;;;;;;2.53;0.83;;;;;;;;;;4994233;28;20413;-73
2023/03/13 00:26:06;;;;;;;0.60;0.60;;;;;;;;;;4994341;28;20405;-72
2023/03/13 00:28:33;;;;;;;1.03;0.60;;;;;;;;;;4994419;28;20507;-72
2023/03/13 00:31:09;;;;;;;1.43;1.33;;;;;;;;;;4993955;28;20501;-72
2023/03/13 00:33:36;;;;;;;0.50;0.50;;;;;;;;;;4993842;28;20425;-73
2023/03/13 00:36:04;;;;;;;1.90;0.70;;;;;;;;;;4993794;28;20504;-73
2023/03/13 00:38:29;;;;;;;0.50;0.50;;;;;;;;;;4993946;28;20414;-73
2023/03/13 00:41:02;;;;;;;0.83;0.70;;;;;;;;;;4994392;28;20431;-73
2023/03/13 00:43:29;;;;;;;3.20;0.60;;;;;;;;;;4993733;28;20468;-72
2023/03/13 00:45:55;;;;;;;1.33;0.90;;;;;;;;;;4993798;28;20416;-73
2023/03/13 00:48:21;;;;;;;2.83;0.93;;;;;;;;;;4994513;28;20878;-73
2023/03/13 00:50:47;;;;;;;2.53;1.33;;;;;;;;;;4994401;28;20417;-73
2023/03/13 00:53:13;;;;;;;4.00;1.10;;;;;;;;;;4994005;28;20443;-72
2023/03/13 00:55:39;;;;;;;2.30;0.87;;;;;;;;;;4993500;28;20976;-73
2023/03/13 00:58:05;;;;;;;1.60;0.83;;;;;;;;;;4993689;28;20560;-72
2023/03/13 01:00:31;;;;;;;0.73;0.60;;;;;;;;;;4993610;28;20452;-72
2023/03/13 01:02:57;;;;;;;0.97;0.93;;;;;;;;;;4993621;28;20424;-73
2023/03/13 01:05:23;;;;;;;0.77;0.77;;;;;;;;;;4993635;28;20882;-72
2023/03/13 01:07:49;;;;;;;0.47;0.47;;;;;;;;;;4993530;28;20775;-72
2023/03/13 01:10:15;;;;;;;0.80;0.57;;;;;;;;;;4993410;28;20427;-72
2023/03/13 01:12:41;;;;;;;1.40;0.80;;;;;;;;;;4993960;28;20512;-73
2023/03/13 01:15:09;;;;;;;0.40;0.40;;;;;;;;;;4993409;28;20555;-73
2023/03/13 01:17:35;;;;;;;1.07;0.80;;;;;;;;;;4993330;28;20810;-72
2023/03/13 01:20:01;;;;;;;2.00;0.77;;;;;;;;;;4993479;28;20479;-72
2023/03/13 01:22:26;;;;;;;1.43;0.70;;;;;;;;;;4993361;28;20822;-72
2023/03/13 01:24:53;;;;;;;1.70;0.63;;;;;;;;;;4996463;28;20428;-73
2023/03/13 01:27:18;;;;;;;2.00;0.70;;;;;;;;;;4997526;28;20469;-72
2023/03/13 01:29:44;;;;;;;0.93;0.93;;;;;;;;;;4997158;28;20510;-72
2023/03/13 01:32:10;;;;;;;1.37;0.60;;;;;;;;;;4996960;28;20432;-73
2023/03/13 01:34:36;;;;;;;0.60;0.60;;;;;;;;;;4997242;28;20473;-72
2023/03/13 01:37:02;;;;;;;2.37;0.60;;;;;;;;;;4996089;28;20784;-73
2023/03/13 01:39:28;;;;;;;1.20;0.60;;;;;;;;;;4997603;28;20456;-72
2023/03/13 01:41:54;;;;;;;0.67;0.50;;;;;;;;;;4995622;28;20437;-73
2023/03/13 01:44:24;;;;;;;0.57;0.57;;;;;;;;;;4995426;28;20480;-72
2023/03/13 01:46:51;;;;;;;0.70;0.70;;;;;;;;;;4997133;28;20413;-72
2023/03/13 01:49:32;;;;;;;1.23;0.90;;;;;;;;;;4996841;28;20479;-72
2023/03/13 01:52:00;;;;;;;1.90;0.90;;;;;;;;;;4996648;28;20487;-72
2023/03/13 01:54:36;;;;;;;0.73;0.73;;;;;;;;;;4995429;28;20551;-72
2023/03/13 01:57:02;;;;;;;0.50;0.50;;;;;;;;;;4997026;28;20412;-72
2023/03/13 01:59:31;;;;;;;1.10;0.63;;;;;;;;;;4996900;28;20417;-72
2023/03/13 02:01:59;;;;;;;1.07;0.97;;;;;;;;;;4995079;28;20806;-72
2023/03/13 02:04:27;;;;;;;0.63;0.63;;;;;;;;;;4996800;28;20417;-72
2023/03/13 02:06:55;;;;;;;1.33;0.87;;;;;;;;;;4996527;28;20825;-72
2023/03/13 02:09:24;;;;;;;1.07;0.50;;;;;;;;;;4996532;28;20449;-72
2023/03/13 02:12:08;;;;;;;2.73;0.97;;;;;;;;;;4996554;28;20421;-72
2023/03/13 02:14:36;;;;;;;0.87;0.67;;;;;;;;;;4996257;28;20464;-72
2023/03/13 02:17:02;;;;;;;0.60;0.50;;;;;;;;;;4996433;28;20433;-73
2023/03/13 02:19:32;;;;;;;2.63;0.77;;;;;;;;;;4996228;28;20769;-73
2023/03/13 02:22:07;;;;;;;1.40;0.80;;;;;;;;;;4996051;28;20421;-73
2023/03/13 02:24:47;;;;;;;2.73;0.43;;;;;;;;;;4996185;28;20443;-73
2023/03/13 02:27:13;;;;;;;0.47;0.47;;;;;;;;;;4996381;28;20532;-72
2023/03/13 02:29:40;;;;;;;4.73;1.40;;;;;;;;;;4996622;28;20829;-72
2023/03/13 02:32:06;;;;;;;1.97;1.87;;;;;;;;;;4995842;28;20512;-72
2023/03/13 02:34:33;;;;;;;0.50;0.50;;;;;;;;;;4995977;28;20473;-72
2023/03/13 02:37:00;;;;;;;0.80;0.40;;;;;;;;;;4995196;28;20417;-72
2023/03/13 02:39:27;;;;;;;1.10;0.47;;;;;;;;;;4996475;28;20886;-72
2023/03/13 02:41:53;;;;;;;1.70;0.60;;;;;;;;;;4996041;28;20425;-72
2023/03/13 02:44:19;;;;;;;0.80;0.80;;;;;;;;;;4995554;28;20477;-73
2023/03/13 02:46:47;;;;;;;0.50;0.50;;;;;;;;;;4995781;28;20422;-72
2023/03/13 02:49:22;;;;;;;0.90;0.70;;;;;;;;;;4995661;28;20909;-72
2023/03/13 02:51:48;;;;;;;1.03;1.03;;;;;;;;;;4995684;28;20421;-73
2023/03/13 02:54:34;;;;;;;1.40;0.70;;;;;;;;;;4995413;28;20421;-72
2023/03/13 02:57:02;;;;;;;0.60;0.60;;;;;;;;;;4995519;28;20421;-72
2023/03/13 02:59:28;;;;;;;1.43;0.63;;;;;;;;;;4995727;28;20897;-73
2023/03/13 03:01:54;;;;;;;1.03;0.70;;;;;;;;;;4995331;28;20417;-72
2023/03/13 03:04:24;;;;;;;0.50;0.50;;;;;;;;;;4995441;28;20421;-72
2023/03/13 03:06:50;;;;;;;1.40;0.50;;;;;;;;;;4995632;28;20421;-72
2023/03/13 03:09:17;;;;;;;5.53;0.80;;;;;;;;;;4995351;28;20420;-72
2023/03/13 03:11:43;;;;;;;4.30;1.10;;;;;;;;;;4995133;28;20500;-73
2023/03/13 03:14:09;;;;;;;0.77;0.70;;;;;;;;;;4995699;28;20507;-73
2023/03/13 03:16:35;;;;;;;0.50;0.50;;;;;;;;;;4995776;28;20425;-72
2023/03/13 03:19:02;;;;;;;0.50;0.50;;;;;;;;;;4995422;28;20421;-73
2023/03/13 03:21:28;;;;;;;0.70;0.70;;;;;;;;;;4995031;28;20915;-72
2023/03/13 03:23:54;;;;;;;0.43;0.43;;;;;;;;;;4993754;28;20429;-72
2023/03/13 03:26:20;;;;;;;0.67;0.53;;;;;;;;;;4995009;28;20417;-72
2023/03/13 03:28:46;;;;;;;1.33;0.50;;;;;;;;;;4995013;28;20947;-73
2023/03/13 03:31:13;;;;;;;2.00;0.67;;;;;;;;;;4994806;28;20417;-73
2023/03/13 03:33:40;;;;;;;2.30;0.93;;;;;;;;;;4994875;28;20516;-72
2023/03/13 03:36:07;;;;;;;0.53;0.53;;;;;;;;;;4995025;28;20464;-73
2023/03/13 03:38:34;;;;;;;0.53;0.53;;;;;;;;;;4994819;28;20425;-73
2023/03/13 03:41:00;;;;;;;7.50;0.80;;;;;;;;;;4994673;28;20421;-72
2023/03/13 03:43:26;;;;;;;1.60;1.00;;;;;;;;;;4994865;28;20468;-73
2023/03/13 03:45:52;;;;;;;1.90;0.80;;;;;;;;;;4995204;28;20421;-73
2023/03/13 03:48:18;;;;;;;2.83;0.70;;;;;;;;;;4994194;28;20428;-73
2023/03/13 03:50:44;;;;;;;1.03;0.70;;;;;;;;;;4994691;28;20507;-73
2023/03/13 03:53:10;;;;;;;2.10;0.70;;;;;;;;;;4994791;28;20563;-73
2023/03/13 03:55:36;;;;;;;0.50;0.50;;;;;;;;;;4994900;28;20559;-73
2023/03/13 03:58:02;;;;;;;0.83;0.80;;;;;;;;;;4994509;28;20424;-73
2023/03/13 04:00:28;;;;;;;0.40;0.40;;;;;;;;;;4994297;28;20425;-72
2023/03/13 04:02:55;;;;;;;0.77;0.77;;;;;;;;;;4994310;28;20460;-72
2023/03/13 04:05:21;;;;;;;1.10;0.73;;;;;;;;;;4994274;28;20425;-73
2023/03/13 04:07:47;;;;;;;0.50;0.50;;;;;;;;;;4994277;28;20413;-73
2023/03/13 04:10:13;;;;;;;0.77;0.77;;;;;;;;;;4994181;28;20453;-73
2023/03/13 04:12:39;;;;;;;1.90;0.93;;;;;;;;;;4994385;28;20460;-73
2023/03/13 04:15:05;;;;;;;2.77;0.60;;;;;;;;;;4994280;28;20551;-73
2023/03/13 04:17:32;;;;;;;1.53;0.57;;;;;;;;;;4994671;28;20500;-73
2023/03/13 04:19:58;;;;;;;1.03;0.80;;;;;;;;;;4994292;28;20429;-73
2023/03/13 04:22:24;;;;;;;3.90;0.90;;;;;;;;;;4994329;28;20418;-73
2023/03/13 04:24:50;;;;;;;1.50;0.83;;;;;;;;;;4994018;28;20433;-73
2023/03/13 04:27:16;;;;;;;0.60;0.60;;;;;;;;;;4993884;28;20417;-73
2023/03/13 04:29:42;;;;;;;1.47;0.73;;;;;;;;;;4994238;28;20417;-73
2023/03/13 04:32:08;;;;;;;0.80;0.80;;;;;;;;;;4993797;28;20409;-73
2023/03/13 04:34:34;;;;;;;0.73;0.73;;;;;;;;;;4993791;28;20534;-73
2023/03/13 04:37:00;;;;;;;3.23;0.80;;;;;;;;;;4994271;28;20788;-73
2023/03/13 04:39:26;;;;;;;3.93;0.90;;;;;;;;;;4994146;28;20909;-72
2023/03/13 04:41:53;;;;;;;3.50;0.67;;;;;;;;;;4993917;28;20429;-73
2023/03/13 04:44:19;;;;;;;0.50;0.50;;;;;;;;;;4993674;28;20500;-73
2023/03/13 04:46:45;;;;;;;1.40;0.43;;;;;;;;;;4993985;28;20425;-73
2023/03/13 04:49:11;;;;;;;0.60;0.60;;;;;;;;;;4994050;28;20479;-73
2023/03/13 04:51:37;;;;;;;0.70;0.60;;;;;;;;;;4993932;28;20936;-73
2023/03/13 04:54:03;;;;;;;0.63;0.60;;;;;;;;;;4993957;28;20421;-72
2023/03/13 04:56:29;;;;;;;0.83;0.80;;;;;;;;;;4993732;28;20434;-73
2023/03/13 04:58:55;;;;;;;0.73;0.73;;;;;;;;;;4994417;28;20417;-73
2023/03/13 05:01:21;;;;;;;0.60;0.60;;;;;;;;;;4997815;28;20906;-73
2023/03/13 05:03:47;;;;;;;0.77;0.73;;;;;;;;;;4997692;28;20419;-73
2023/03/13 05:06:13;;;;;;;1.03;0.90;;;;;;;;;;4997666;28;20437;-73
2023/03/13 05:08:39;;;;;;;0.50;0.50;;;;;;;;;;4997525;28;20420;-73
2023/03/13 05:11:05;;;;;;;1.03;0.47;;;;;;;;;;4997813;28;20417;-72
2023/03/13 05:13:31;;;;;;;0.40;0.40;;;;;;;;;;4997718;28;20416;-73
2023/03/13 05:15:57;;;;;;;0.70;0.57;;;;;;;;;;4997357;28;20506;-73
2023/03/13 05:18:23;;;;;;;1.17;0.97;;;;;;;;;;4997401;28;20507;-73
2023/03/13 05:20:49;;;;;;;0.70;0.70;;;;;;;;;;4997341;28;20475;-73
2023/03/13 05:23:15;;;;;;;0.70;0.70;;;;;;;;;;4996696;28;20424;-73
2023/03/13 05:25:41;;;;;;;1.17;1.13;;;;;;;;;;4997339;28;20178;-73
2023/03/13 05:28:07;;;;;;;1.27;0.60;;;;;;;;;;4997546;28;20421;-72
2023/03/13 05:30:33;;;;;;;1.77;0.40;;;;;;;;;;4997131;28;20433;-73
2023/03/13 05:32:59;;;;;;;1.23;0.70;;;;;;;;;;4997341;28;20425;-73
2023/03/13 05:35:25;;;;;;;0.57;0.57;;;;;;;;;;4997534;28;20508;-73
2023/03/13 05:37:51;;;;;;;3.40;0.53;;;;;;;;;;4997421;28;20479;-73
2023/03/13 05:40:17;;;;;;;3.63;0.67;;;;;;;;;;4997023;28;20905;-73
2023/03/13 05:42:44;;;;;;;1.30;0.70;;;;;;;;;;4997471;28;20439;-72
2023/03/13 05:45:10;;;;;;;1.37;0.70;;;;;;;;;;4997265;28;20430;-72
2023/03/13 05:47:37;;;;;;;2.73;0.77;;;;;;;;;;4996908;28;20421;-73
2023/03/13 05:50:03;;;;;;;0.80;0.80;;;;;;;;;;4996775;28;20452;-73
2023/03/13 05:52:29;;;;;;;0.70;0.70;;;;;;;;;;4997040;28;20507;-73
2023/03/13 05:54:55;;;;;;;0.90;0.90;;;;;;;;;;4997255;28;20875;-73
2023/03/13 05:57:21;;;;;;;0.60;0.60;;;;;;;;;;4996678;28;20843;-73
2023/03/13 05:59:47;;;;;;;0.50;0.50;;;;;;;;;;4996627;28;20496;-73
2023/03/13 06:02:13;;;;;;;0.50;0.50;;;;;;;;;;4996549;28;20432;-73
2023/03/13 06:04:39;;;;;;;0.90;0.90;;;;;;;;;;4996889;28;20417;-73
2023/03/13 06:07:05;;;;;;;0.57;0.30;;;;;;;;;;4996560;28;20900;-73
2023/03/13 06:09:31;;;;;;;0.50;0.50;;;;;;;;;;4996315;28;20454;-73
2023/03/13 06:11:57;;;;;;;1.60;0.50;;;;;;;;;;4996335;28;20480;-72
2023/03/13 06:14:23;;;;;;;0.67;0.63;;;;;;;;;;4997090;28;20512;-73
2023/03/13 06:16:49;;;;;;;0.50;0.50;;;;;;;;;;4996631;28;20437;-73
2023/03/13 06:19:15;;;;;;;0.63;0.63;;;;;;;;;;4996335;28;20483;-73
2023/03/13 06:21:41;;;;;;;0.60;0.50;;;;;;;;;;4996474;28;20923;-73
2023/03/13 06:24:07;;;;;;;0.77;0.57;;;;;;;;;;4996751;28;20511;-73
2023/03/13 06:26:33;;;;;;;1.27;0.47;;;;;;;;;;4996848;28;20508;-73
2023/03/13 06:28:59;;;;;;;0.97;0.57;;;;;;;;;;4996180;28;20521;-73
2023/03/13 06:31:25;;;;;;;1.10;0.50;;;;;;;;;;4995877;28;20430;-73
2023/03/13 06:33:54;;;;;;;0.40;0.40;;;;;;;;;;4996420;28;20417;-73
2023/03/13 06:36:21;;;;;;;0.47;0.47;;;;;;;;;;4996012;28;20874;-73
2023/03/13 06:38:47;;;;;;;1.70;0.67;;;;;;;;;;4995877;28;20833;-73
2023/03/13 06:41:13;;;;;;;6.80;0.63;;;;;;;;;;4996458;28;20429;-73
2023/03/13 06:43:39;;;;;;;0.40;0.40;;;;;;;;;;4995705;28;20464;-73
2023/03/13 06:46:06;;;;;;;9.00;0.50;;;;;;;;;;4995897;28;20417;-72
2023/03/13 06:48:32;;;;;;;2.70;0.83;;;;;;;;;;4995969;28;20410;-72
2023/03/13 06:50:58;;;;;;;0.50;0.50;;;;;;;;;;4995509;28;21032;-73
2023/03/13 06:53:24;;;;;;;0.53;0.53;;;;;;;;;;4996150;28;20441;-73
2023/03/13 06:55:50;;;;;;;1.07;0.60;;;;;;;;;;4995357;28;20505;-73
2023/03/13 06:58:16;;;;;;;1.67;0.43;;;;;;;;;;4995813;28;20416;-73
2023/03/13 07:00:43;;;;;;;0.70;0.70;;;;;;;;;;4995476;28;20469;-73
2023/03/13 07:03:09;;;;;;;0.50;0.50;;;;;;;;;;4995339;28;20424;-73
2023/03/13 07:05:35;;;;;;;0.40;0.30;;;;;;;;;;4995175;28;20913;-73
2023/03/13 07:08:01;;;;;;;0.83;0.83;;;;;;;;;;4995139;28;20417;-73
2023/03/13 07:10:28;;;;;;;0.60;0.60;;;;;;;;;;4995555;28;20527;-73
2023/03/13 07:12:55;;;;;;;0.57;0.57;;;;;;;;;;4994000;28;20433;-73
2023/03/13 07:15:21;;;;;;;0.50;0.50;;;;;;;;;;4995125;28;20476;-73
2023/03/13 07:17:47;;;;;;;0.50;0.50;;;;;;;;;;4995224;28;20987;-73
2023/03/13 07:20:13;;;;;;;0.53;0.53;;;;;;;;;;4994875;28;20550;-73
2023/03/13 07:22:39;;;;;;;0.50;0.50;;;;;;;;;;4994653;28;20417;-73
2023/03/13 07:25:05;;;;;;;0.30;0.30;;;;;;;;;;4994882;28;20425;-73
2023/03/13 07:27:31;;;;;;;0.53;0.53;;;;;;;;;;4995314;28;20427;-73
2023/03/13 07:29:57;;;;;;;0.50;0.50;;;;;;;;;;4993446;28;20481;-73
2023/03/13 07:32:24;;;;;;;1.70;0.70;;;;;;;;;;4994747;28;20508;-73
2023/03/13 07:34:49;;;;;;;2.23;0.60;;;;;;;;;;4994686;28;20555;-73
2023/03/13 07:37:16;;;;;;;1.13;0.50;;;;;;;;;;4994610;28;20511;-73
2023/03/13 07:39:43;;;;;;;0.60;0.60;;;;;;;;;;4994812;28;20420;-72
2023/03/13 07:42:12;;;;;;;0.50;0.50;;;;;;;;;;4993386;28;20518;-74
2023/03/13 07:44:38;;;;;;;0.30;0.30;;;;;;;;;;4994997;28;20590;-73
2023/03/13 07:47:04;;;;;;;0.40;0.40;;;;;;;;;;4995018;28;20432;-73
2023/03/13 07:49:30;;;;;;;0.43;0.37;;;;;;;;;;4994150;28;20422;-73
2023/03/13 07:51:56;;;;;;;0.33;0.33;;;;;;;;;;4994770;28;20435;-73
2023/03/13 07:54:22;;;;;;;0.30;0.30;;;;;;;;;;4994133;28;20778;-73
2023/03/13 07:56:49;;;;;;;4.83;0.50;;;;;;;;;;4994351;28;20432;-72
2023/03/13 07:59:15;;;;;;;0.57;0.57;;;;;;;;;;4994264;28;20479;-72
2023/03/13 08:01:41;;;;;;;0.50;0.50;;;;;;;;;;4994591;28;20425;-73
2023/03/13 08:04:09;;;;;;;0.50;0.50;;;;;;;;;;4994547;28;20988;-73
2023/03/13 08:06:35;;;;;;;0.60;0.60;;;;;;;;;;4994430;28;20425;-72
2023/03/13 08:09:02;;;;;;;0.47;0.47;;;;;;;;;;4994288;28;21047;-72
2023/03/13 08:11:28;;;;;;;0.50;0.50;;;;;;;;;;4994499;28;20488;-72
2023/03/13 08:13:55;;;;;;;0.90;0.50;;;;;;;;;;4994292;28;20425;-73
2023/03/13 08:16:22;;;;;;;0.77;0.40;;;;;;;;;;4994355;28;20499;-72
2023/03/13 08:18:49;;;;;;;0.40;0.40;;;;;;;;;;4994112;28;20513;-73
2023/03/13 08:21:16;;;;;;;1.13;0.80;;;;;;;;;;4994018;28;20538;-73
2023/03/13 08:23:42;;;;;;;0.40;0.40;;;;;;;;;;4993979;28;20417;-73
2023/03/13 08:26:10;;;;;;;2.20;0.63;;;;;;;;;;4993784;28;20432;-70
2023/03/13 08:28:37;;;;;;;0.60;0.60;;;;;;;;;;4993830;28;20421;-69
2023/03/13 08:31:09;;;;;;;1.10;0.40;;;;;;;;;;4994114;28;20476;-69
2023/03/13 08:33:35;;;;;;;0.93;0.60;;;;;;;;;;4992033;28;20415;-71
2023/03/13 08:36:19;;;;;;;0.30;0.30;;;;;;;;;;4993958;28;20209;-73
2023/03/13 08:38:45;;;;;;;0.80;0.80;;;;;;;;;;4994555;28;20405;-73
2023/03/13 08:41:12;;;;;;;0.77;0.63;;;;;;;;;;4994079;28;20965;-63
2023/03/13 08:43:38;;;;;;;1.90;0.50;;;;;;;;;;4993721;28;20839;-63
2023/03/13 08:46:04;;;;;;;2.47;0.70;;;;;;;;;;4994073;28;20926;-63
2023/03/13 08:48:30;;;;;;;3.70;0.80;;;;;;;;;;4994120;28;20417;-62
2023/03/13 08:51:14;;;;;;;4.00;0.50;;;;;;;;;;4992464;28;20504;-62
2023/03/13 08:53:42;;;;;;;1.23;0.40;;;;;;;;;;4994485;28;20441;-63
2023/03/13 08:56:09;;;;;;;5.75;1.30;;;;;;;;;;4992658;28;20949;-63
2023/03/13 08:58:35;;;;;;;0.43;0.43;;;;;;;;;;4993424;28;20178;-62
2023/03/13 09:01:02;;;;;;;2.93;0.60;;;;;;;;;;4992216;28;20432;-72
2023/03/13 09:03:28;;;;;;;0.50;0.50;;;;;;;;;;4993584;28;20500;-72
2023/03/13 09:05:55;;;;;;;0.90;0.43;;;;;;;;;;4993885;28;20421;-72
2023/03/13 09:08:21;;;;;;;0.40;0.40;;;;;;;;;;4994229;28;20413;-72
2023/03/13 09:10:47;;;;;;;0.50;0.50;;;;;;;;;;4993339;28;20443;-72
2023/03/13 09:13:13;;;;;;;4.27;0.50;;;;;;;;;;4993870;28;20417;-72
2023/03/13 09:15:39;;;;;;;2.60;0.80;;;;;;;;;;4993356;28;20477;-72
2023/03/13 09:18:06;;;;;;;2.60;0.70;;;;;;;;;;4993485;28;20421;-72
2023/03/13 09:20:32;;;;;;;2.23;0.63;;;;;;;;;;4992684;28;20433;-72
2023/03/13 09:22:58;;;;;;;0.53;0.53;;;;;;;;;;4993840;28;20429;-72
2023/03/13 09:25:24;;;;;;;7.83;0.80;;;;;;;;;;4992374;28;20455;-72
2023/03/13 09:27:50;;;;;;;1.20;0.60;;;;;;;;;;4993149;28;20417;-73
2023/03/13 09:30:16;;;;;;;1.40;0.60;;;;;;;;;;4993326;28;20201;-72
2023/03/13 09:32:42;;;;;;;0.30;0.30;;;;;;;;;;4993377;28;20948;-72
2023/03/13 09:35:08;;;;;;;0.50;0.50;;;;;;;;;;4993556;28;20488;-72
2023/03/13 09:37:34;;;;;;;0.53;0.50;;;;;;;;;;4993313;28;20421;-72
2023/03/13 09:40:00;;;;;;;0.47;0.47;;;;;;;;;;4993845;28;20813;-72
2023/03/13 09:42:43;;;;;;;0.60;0.60;;;;;;;;;;4993308;28;20425;-72
2023/03/13 09:45:13;;;;;;;0.40;0.40;;;;;;;;;;4994743;28;20425;-72
2023/03/13 09:47:44;;;;;;;2.78;1.10;;;;;;;;;;4996195;28;20413;-76
2023/03/13 09:50:12;;;;;;;0.40;0.40;;;;;;;;;;4996905;28;20228;-78
2023/03/13 09:52:39;;;;;;;4.80;0.90;;;;;;;;;;4995695;28;20916;-77
2023/03/13 09:55:08;;;;;;;2.27;0.47;;;;;;;;;;4996989;28;20221;-69
2023/03/13 09:57:37;;;;;;;0.37;0.37;;;;;;;;;;4996633;28;20421;-73
2023/03/13 10:00:11;;;;;;;13.70;0.93;;;;;;;;;;4996621;28;20519;-73
2023/03/13 10:02:37;;;;;;;4.33;0.80;;;;;;;;;;4996938;28;20492;-73
2023/03/13 10:05:23;;;;;;;1.17;0.30;;;;;;;;;;4996874;28;20428;-73
2023/03/13 10:07:50;;;;;;;0.40;0.40;;;;;;;;;;4997572;28;20409;-73
2023/03/13 10:10:16;;;;;;;1.13;0.60;;;;;;;;;;4996513;28;20425;-73
2023/03/13 10:12:47;;;;;;;5.37;0.40;;;;;;;;;;4996373;28;21023;-73
2023/03/13 10:15:32;;;;;;;0.50;0.50;;;;;;;;;;4996663;28;20487;-73
2023/03/13 10:17:59;;;;;;;1.67;0.50;;;;;;;;;;4996443;28;20417;-73
2023/03/13 10:20:27;;;;;;;0.60;0.60;;;;;;;;;;4996315;28;20461;-72
2023/03/13 10:23:12;;;;;;;1.00;0.60;;;;;;;;;;4996514;28;20412;-73
2023/03/13 10:25:38;;;;;;;0.70;0.50;;;;;;;;;;4996207;28;20505;-73
2023/03/13 10:28:05;;;;;;;0.60;0.50;;;;;;;;;;4996178;28;20492;-73
2023/03/13 10:30:34;;;;;;;0.40;0.40;;;;;;;;;;4996056;28;20461;-73
2023/03/13 10:33:18;;;;;;;3.60;0.50;;;;;;;;;;4996310;28;20418;-72
2023/03/13 10:35:44;;;;;;;2.63;0.60;;;;;;;;;;4996078;28;20483;-73
2023/03/13 10:38:11;;;;;;;0.73;0.73;;;;;;;;;;4996069;28;20417;-73
2023/03/13 10:40:38;;;;;;;0.40;0.40;;;;;;;;;;4996042;28;20433;-72
2023/03/13 10:43:06;;;;;;;1.37;0.50;;;;;;;;;;4995685;28;20465;-72
2023/03/13 10:45:34;;;;;;;0.70;0.70;;;;;;;;;;4996176;28;20424;-72
2023/03/13 10:48:10;;;;;;;1.70;0.60;;;;;;;;;;4996684;28;20479;-72
2023/03/13 10:50:36;;;;;;;1.60;0.70;;;;;;;;;;4995843;28;20889;-73
2023/03/13 10:53:07;;;;;;;0.40;0.40;;;;;;;;;;4996189;28;20467;-72
2023/03/13 10:55:33;;;;;;;0.67;0.57;;;;;;;;;;4995915;28;20492;-73
2023/03/13 10:58:03;;;;;;;0.50;0.50;;;;;;;;;;4994705;28;20764;-77
2023/03/13 11:00:33;;;;;;;0.60;0.60;;;;;;;;;;4995329;28;20790;-73
2023/03/13 11:02:59;;;;;;;1.53;0.60;;;;;;;;;;4995562;28;20401;-72
2023/03/13 11:05:29;;;;;;;0.50;0.50;;;;;;;;;;4995496;28;20962;-74
2023/03/13 11:07:55;;;;;;;0.50;0.50;;;;;;;;;;4995348;28;20417;-73
2023/03/13 11:10:24;;;;;;;5.10;0.50;;;;;;;;;;4995192;28;20428;-72
2023/03/13 11:12:51;;;;;;;0.30;0.30;;;;;;;;;;4995642;28;20417;-74
2023/03/13 11:15:40;;;;;;;0.40;0.40;;;;;;;;;;4995180;28;20472;-73
2023/03/13 11:18:20;;;;;;;6.13;0.40;;;;;;;;;;4994877;28;20451;-73
2023/03/13 11:20:46;;;;;;;0.50;0.50;;;;;;;;;;4995342;28;20500;-74
2023/03/13 11:23:20;;;;;;;2.00;0.40;;;;;;;;;;4994786;28;20405;-73
2023/03/13 11:25:46;;;;;;;2.43;1.10;;;;;;;;;;4995259;28;20417;-73
2023/03/13 11:28:30;;;;;;;0.37;0.37;;;;;;;;;;4994977;28;20421;-73
2023/03/13 11:31:07;;;;;;;0.40;0.40;;;;;;;;;;4994014;28;20513;-73
2023/03/13 11:33:46;;;;;;;0.40;0.40;;;;;;;;;;4995269;28;20437;-73
2023/03/13 11:36:12;;;;;;;0.53;0.53;;;;;;;;;;4995255;28;20473;-73
2023/03/13 11:38:40;;;;;;;4.03;3.80;;;;;;;;;;4995073;28;20430;-73
2023/03/13 11:41:24;;;;;;;24.87;16.20;;;;;;;;;;4994919;28;20428;-73
2023/03/13 11:43:59;;;;;;;2.03;1.83;;;;;;;;;;4994497;28;20909;-73
2023/03/13 11:46:27;;;;;;;1.20;1.20;;;;;;;;;;4994767;28;20409;-73
2023/03/13 11:49:12;;;;;;;1.70;0.50;;;;;;;;;;4993330;28;20424;-73
2023/03/13 11:51:48;;;;;;;0.80;0.80;;;;;;;;;;4993885;28;20565;-73
2023/03/13 11:54:20;;;;;;;0.80;0.80;;;;;;;;;;4994826;28;20405;-74
2023/03/13 11:56:50;;;;;;;10.90;6.50;;;;;;;;;;4994411;28;20516;-74
2023/03/13 11:59:28;;;;;;;1.47;1.07;;;;;;;;;;4993165;28;20452;-75
2023/03/13 12:01:57;;;;;;;1.27;1.00;;;;;;;;;;4994167;28;20421;-74
2023/03/13 12:04:29;;;;;;;0.70;0.70;;;;;;;;;;4994436;28;20413;-75
2023/03/13 12:06:59;;;;;;;3.20;3.10;;;;;;;;;;4994403;28;20500;-74
2023/03/13 12:09:31;;;;;;;2.30;2.30;;;;;;;;;;4994392;28;20409;-73
2023/03/13 12:12:04;;;;;;;7.83;7.03;;;;;;;;;;4994008;28;20409;-73
2023/03/13 12:14:36;;;;;;;3.63;3.30;;;;;;;;;;4994096;28;20980;-72
2023/03/13 12:17:05;;;;;;;2.77;2.67;;;;;;;;;;4994401;28;20555;-73
2023/03/13 12:19:49;;;;;;;3.70;3.50;;;;;;;;;;4994178;28;20456;-73
2023/03/13 12:22:28;;;;;;;17.83;4.40;;;;;;;;;;4994462;28;20472;-73
2023/03/13 12:24:57;;;;;;;5.90;4.70;;;;;;;;;;4994077;28;20812;-73
2023/03/13 12:27:31;;;;;;;4.37;1.40;;;;;;;;;;4993922;28;20417;-73
2023/03/13 12:29:57;;;;;;;2.30;2.10;;;;;;;;;;4992383;28;20948;-73
2023/03/13 12:32:35;;;;;;;4.53;0.80;;;;;;;;;;4993963;28;20452;-73
2023/03/13 12:35:04;;;;;;;0.70;0.70;;;;;;;;;;4994274;28;20472;-73
2023/03/13 12:37:38;;;;;;;3.70;0.60;;;;;;;;;;4993129;28;20473;-72
2023/03/13 12:40:15;;;;;;;1.47;0.60;;;;;;;;;;4993835;28;20176;-73
2023/03/13 12:42:44;;;;;;;0.40;0.40;;;;;;;;;;4993826;28;20412;-73
2023/03/13 12:45:15;;;;;;;2.00;0.60;;;;;;;;;;4992965;28;20483;-73
2023/03/13 12:48:00;;;;;;;1.00;0.50;;;;;;;;;;4994035;28;20233;-73
2023/03/13 12:50:29;;;;;;;2.20;0.50;;;;;;;;;;4993971;28;20421;-73
2023/03/13 12:53:15;;;;;;;0.47;0.47;;;;;;;;;;4994050;28;20432;-73
2023/03/13 12:55:58;;;;;;;4.33;0.60;;;;;;;;;;4992776;28;20484;-72
2023/03/13 12:58:44;;;;;;;1.23;1.23;;;;;;;;;;4994055;28;20448;-73
2023/03/13 13:01:15;;;;;;;3.77;3.50;;;;;;;;;;4993722;28;20428;-73
2023/03/13 13:03:50;;;;;;;2.83;1.37;;;;;;;;;;4993991;28;20394;-72
2023/03/13 13:06:16;;;;;;;9.57;4.63;;;;;;;;;;4993899;28;20768;-73
2023/03/13 13:08:48;;;;;;;2.87;1.17;;;;;;;;;;4993586;28;20898;-73
2023/03/13 13:11:32;;;;;;;2.33;2.30;;;;;;;;;;4993521;28;20972;-73
2023/03/13 13:13:59;;;;;;;3.10;2.67;;;;;;;;;;4993403;28;20424;-73
2023/03/13 13:16:25;;;;;;;1.43;1.37;;;;;;;;;;4992178;28;20527;-73
2023/03/13 13:18:51;;;;;;;5.33;2.70;;;;;;;;;;4993374;28;20434;-71
2023/03/13 13:21:22;;;;;;;5.83;4.50;;;;;;;;;;4996474;28;20432;-71
2023/03/13 13:23:52;;;;;;;1.00;1.00;;;;;;;;;;4997335;28;20504;-71
2023/03/13 13:26:32;;;;;;;2.90;2.70;;;;;;;;;;4996134;28;20417;-71
2023/03/13 13:29:10;;;;;;;1.00;1.00;;;;;;;;;;4997578;28;20416;-71
2023/03/13 13:31:42;;;;;;;2.00;0.80;;;;;;;;;;4997015;28;20811;-67
2023/03/13 13:34:29;;;;;;;2.10;0.70;;;;;;;;;;4997333;28;20455;-70
2023/03/13 13:36:56;;;;;;;0.47;0.47;;;;;;;;;;4997068;28;20441;-69
2023/03/13 13:39:32;;;;;;;5.07;0.70;;;;;;;;;;4997285;28;20420;-73
2023/03/13 13:41:58;;;;;;;0.60;0.60;;;;;;;;;;4997271;28;20401;-72
2023/03/13 13:44:25;;;;;;;1.27;0.97;;;;;;;;;;4995742;28;20473;-73
2023/03/13 13:46:52;;;;;;;2.00;0.77;;;;;;;;;;4997054;28;20420;-73
2023/03/13 13:49:19;;;;;;;0.50;0.50;;;;;;;;;;4997149;28;20437;-73
2023/03/13 13:52:03;;;;;;;0.90;0.90;;;;;;;;;;4996783;28;20483;-72
2023/03/13 13:54:32;;;;;;;1.70;1.03;;;;;;;;;;4996562;28;20412;-73
2023/03/13 13:57:01;;;;;;;4.10;0.77;;;;;;;;;;4996582;28;20436;-73
2023/03/13 13:59:33;;;;;;;3.07;2.87;;;;;;;;;;4996302;28;20457;-72
2023/03/13 14:02:08;;;;;;;1.73;1.63;;;;;;;;;;4996192;28;20579;-73
2023/03/13 14:04:34;;;;;;;3.70;0.90;;;;;;;;;;4996527;28;20500;-72
2023/03/13 14:07:01;;;;;;;2.27;0.80;;;;;;;;;;4996601;28;20457;-73
2023/03/13 14:09:27;;;;;;;0.90;0.80;;;;;;;;;;4996632;28;20448;-72
2023/03/13 14:11:53;;;;;;;0.80;0.80;;;;;;;;;;4996449;28;20810;-72
2023/03/13 14:14:20;;;;;;;0.50;0.50;;;;;;;;;;4996429;28;20500;-72
2023/03/13 14:16:51;;;;;;;0.60;0.60;;;;;;;;;;4996480;28;20491;-72
2023/03/13 14:19:23;;;;;;;1.23;0.50;;;;;;;;;;4995124;28;20929;-72
2023/03/13 14:21:49;;;;;;;0.73;0.60;;;;;;;;;;4996031;28;20429;-72
2023/03/13 14:24:15;;;;;;;6.80;0.90;;;;;;;;;;4996235;28;20838;-73
2023/03/13 14:26:43;;;;;;;0.43;0.43;;;;;;;;;;4994883;28;20453;-72
2023/03/13 14:29:15;;;;;;;1.37;0.60;;;;;;;;;;4996200;28;20413;-72
2023/03/13 14:31:41;;;;;;;1.17;0.50;;;;;;;;;;4996422;28;20397;-72
2023/03/13 14:34:08;;;;;;;0.50;0.50;;;;;;;;;;4996071;28;20440;-72
2023/03/13 14:36:50;;;;;;;0.70;0.60;;;;;;;;;;4996224;28;20479;-72
2023/03/13 14:39:34;;;;;;;3.27;0.80;;;;;;;;;;4996065;28;20413;-72
2023/03/13 14:42:11;;;;;;;0.70;0.70;;;;;;;;;;4994762;28;20421;-72
2023/03/13 14:44:39;;;;;;;0.50;0.50;;;;;;;;;;4995885;28;20472;-72
2023/03/13 14:47:06;;;;;;;2.20;0.60;;;;;;;;;;4996203;28;20436;-73
2023/03/13 14:49:33;;;;;;;0.40;0.40;;;;;;;;;;4996341;28;20810;-72
2023/03/13 14:52:16;;;;;;;0.80;0.80;;;;;;;;;;4996270;28;20425;-72